Time;durP1;ratioP1;P1;durP2;ratioP2;P2;SDS_P1;SDS_P2;PMS_P1;PMS_P2;Temp;Humidity;BMP_temperature;BMP_pressure;BME280_temperature;BME280_humidity;BME280_pressure;Samples;Min_cycle;Max_cycle;Signal;HPM_P1;HPM_P2
2022/03/27 00:01:24;;;;;;;7.85;6.10;;;;;;;13.35;56.84;103091.59;5050208;28;20041;-61
2022/03/27 00:03:50;;;;;;;10.15;6.47;;;;;;;13.39;56.84;103098.44;5032184;28;20036;-61
2022/03/27 00:06:15;;;;;;;8.38;5.57;;;;;;;13.30;56.81;103099.75;5030083;28;20022;-61
2022/03/27 00:08:41;;;;;;;7.85;5.55;;;;;;;13.30;56.88;103096.97;5047321;28;20028;-61
2022/03/27 00:11:24;;;;;;;7.85;5.68;;;;;;;13.30;57.34;103099.75;5048717;28;20116;-61
2022/03/27 00:13:54;;;;;;;8.95;6.47;;;;;;;13.20;57.14;103113.25;5043048;28;20017;-61
2022/03/27 00:16:19;;;;;;;9.18;5.90;;;;;;;13.17;57.11;103105.34;5046334;28;20116;-60
2022/03/27 00:18:45;;;;;;;8.40;6.03;;;;;;;13.15;57.60;103107.47;5051777;28;20112;-60
2022/03/27 00:21:10;;;;;;;7.75;5.55;;;;;;;13.09;57.59;103108.34;5052249;28;20071;-60
2022/03/27 00:23:36;;;;;;;8.07;5.97;;;;;;;13.08;57.73;103107.47;5049973;28;20124;-60
2022/03/27 00:26:03;;;;;;;12.35;5.75;;;;;;;13.10;57.88;103108.13;5051749;28;20062;-60
2022/03/27 00:28:32;;;;;;;8.77;5.68;;;;;;;13.08;57.72;103107.47;5053549;28;20021;-60
2022/03/27 00:31:02;;;;;;;9.45;5.97;;;;;;;13.05;57.99;103101.44;5050962;28;20082;-60
2022/03/27 00:33:31;;;;;;;8.05;5.68;;;;;;;12.95;58.37;103105.53;5037979;28;20439;-60
2022/03/27 00:35:58;;;;;;;8.20;5.65;;;;;;;12.96;58.48;103104.44;5052869;28;20090;-60
2022/03/27 00:38:25;;;;;;;8.32;5.78;;;;;;;12.92;58.55;103103.16;5039268;28;20473;-60
2022/03/27 00:40:51;;;;;;;9.07;5.75;;;;;;;12.90;58.76;103093.31;5052699;28;20021;-60
2022/03/27 00:43:17;;;;;;;9.57;5.90;;;;;;;12.85;59.02;103091.19;5041311;28;20033;-60
2022/03/27 00:45:43;;;;;;;10.30;5.65;;;;;;;12.80;59.11;103092.88;5051007;28;20098;-60
2022/03/27 00:48:11;;;;;;;9.68;5.85;;;;;;;12.88;59.01;103095.47;5038686;28;20045;-60
2022/03/27 00:50:37;;;;;;;7.05;5.30;;;;;;;12.82;59.25;103097.19;5052628;28;20040;-60
2022/03/27 00:53:02;;;;;;;10.75;6.10;;;;;;;12.84;59.08;103094.16;5048888;28;20021;-60
2022/03/27 00:55:28;;;;;;;7.30;5.88;;;;;;;12.76;59.07;103093.31;5050543;28;20166;-60
2022/03/27 00:58:02;;;;;;;9.52;5.88;;;;;;;12.87;58.62;103094.59;5052935;28;20052;-60
2022/03/27 01:00:46;;;;;;;8.43;6.10;;;;;;;12.86;58.84;103101.25;5043300;28;20028;-61
2022/03/27 01:03:16;;;;;;;9.18;6.00;;;;;;;12.85;59.05;103093.09;5036197;28;20048;-61
2022/03/27 01:05:44;;;;;;;6.72;5.72;;;;;;;12.83;59.20;103093.31;5052196;28;20120;-62
2022/03/27 01:08:13;;;;;;;7.72;6.22;;;;;;;12.74;59.58;103089.03;5052257;28;20119;-61
2022/03/27 01:10:42;;;;;;;8.18;5.93;;;;;;;12.67;59.68;103096.53;5045089;28;20500;-61
2022/03/27 01:13:11;;;;;;;11.90;5.75;;;;;;;12.64;59.55;103089.44;5052434;28;20082;-61
2022/03/27 01:15:44;;;;;;;9.50;6.45;;;;;;;12.64;59.68;103089.44;5050331;28;20032;-61
2022/03/27 01:18:09;;;;;;;7.85;6.13;;;;;;;12.59;59.91;103082.78;5053145;28;20028;-60
2022/03/27 01:20:38;;;;;;;8.77;6.25;;;;;;;12.54;59.96;103086.22;5049421;28;20056;-61
2022/03/27 01:23:09;;;;;;;8.38;6.13;;;;;;;12.48;60.33;103085.13;5031666;28;20029;-61
2022/03/27 01:25:36;;;;;;;9.07;5.97;;;;;;;12.40;60.24;103079.75;5034261;28;20041;-61
2022/03/27 01:28:04;;;;;;;10.52;6.40;;;;;;;12.41;60.20;103087.03;5036313;28;20032;-61
2022/03/27 01:30:30;;;;;;;9.27;6.07;;;;;;;12.40;60.33;103082.53;5046238;28;20033;-61
2022/03/27 01:32:58;;;;;;;9.00;6.50;;;;;;;12.39;60.51;103078.03;5040499;28;20135;-61
2022/03/27 01:35:24;;;;;;;10.95;6.85;;;;;;;12.38;60.27;103089.38;5040341;28;20029;-62
2022/03/27 01:37:52;;;;;;;8.25;6.15;;;;;;;12.36;60.40;103080.41;5047004;28;20040;-62
2022/03/27 01:40:18;;;;;;;10.27;6.55;;;;;;;12.31;60.66;103089.38;5037458;28;20120;-61
2022/03/27 01:42:44;;;;;;;10.63;6.88;;;;;;;12.32;60.55;103082.75;5039836;28;20504;-60
2022/03/27 01:45:10;;;;;;;11.85;7.13;;;;;;;12.21;60.93;103084.19;5045057;28;20029;-61
2022/03/27 01:47:37;;;;;;;9.35;6.90;;;;;;;12.21;60.81;103088.91;5051409;28;20036;-62
2022/03/27 01:50:05;;;;;;;11.60;7.13;;;;;;;12.21;60.89;103087.00;5049267;28;20041;-62
2022/03/27 01:52:34;;;;;;;9.98;7.15;;;;;;;12.15;61.01;103078.63;5051632;28;20035;-61
2022/03/27 01:55:03;;;;;;;9.60;6.97;;;;;;;12.09;61.50;103093.38;5048931;28;20032;-61
2022/03/27 01:57:28;;;;;;;11.00;6.95;;;;;;;12.14;61.38;103088.88;5047087;28;20028;-61
2022/03/27 01:59:53;;;;;;;10.10;7.15;;;;;;;12.13;61.36;103086.31;5032248;28;20059;-61
2022/03/27 02:02:23;;;;;;;10.00;7.88;;;;;;;12.13;61.39;103081.59;5033289;28;20033;-61
2022/03/27 02:04:58;;;;;;;10.30;7.05;;;;;;;12.13;61.07;103080.75;5039949;28;20078;-61
2022/03/27 02:07:23;;;;;;;9.20;7.60;;;;;;;12.16;61.34;103080.34;5041589;28;20030;-61
2022/03/27 02:09:49;;;;;;;8.90;7.10;;;;;;;12.16;61.31;103085.91;5041656;28;20035;-61
2022/03/27 02:12:14;;;;;;;11.07;7.95;;;;;;;12.08;61.62;103077.75;5043786;28;20115;-61
2022/03/27 02:14:40;;;;;;;11.73;8.13;;;;;;;12.11;61.23;103080.13;5037292;28;20029;-61
2022/03/27 02:17:05;;;;;;;11.32;7.50;;;;;;;12.10;61.35;103084.81;5032708;28;20052;-60
2022/03/27 02:19:31;;;;;;;14.13;7.45;;;;;;;12.06;61.52;103077.09;5036593;28;20067;-61
2022/03/27 02:21:56;;;;;;;8.23;7.07;;;;;;;12.00;61.28;103078.78;5043910;28;20090;-61
2022/03/27 02:24:21;;;;;;;10.10;7.13;;;;;;;11.99;61.25;103080.72;5047577;28;20017;-61
2022/03/27 02:26:50;;;;;;;10.93;7.47;;;;;;;11.97;61.33;103081.97;5045981;28;20095;-61
2022/03/27 02:29:16;;;;;;;9.65;7.07;;;;;;;11.90;61.74;103079.16;5049462;28;20392;-60
2022/03/27 02:31:42;;;;;;;13.07;8.38;;;;;;;11.86;61.73;103074.22;5050940;28;20037;-63
2022/03/27 02:34:08;;;;;;;9.30;7.68;;;;;;;11.82;61.75;103075.69;5047753;28;20132;-61
2022/03/27 02:36:33;;;;;;;10.88;8.07;;;;;;;11.84;61.70;103077.22;5031072;28;20220;-61
2022/03/27 02:38:58;;;;;;;12.23;8.45;;;;;;;11.85;62.02;103078.94;5031448;28;20385;-61
2022/03/27 02:41:24;;;;;;;12.32;9.48;;;;;;;11.85;61.92;103073.38;5037206;28;20033;-61
2022/03/27 02:43:49;;;;;;;13.20;10.20;;;;;;;11.93;61.87;103075.13;5047362;28;20032;-61
2022/03/27 02:46:14;;;;;;;16.20;10.73;;;;;;;11.93;61.86;103084.31;5045695;28;20511;-61
2022/03/27 02:48:39;;;;;;;16.27;11.60;;;;;;;11.96;62.15;103083.91;5032472;28;20479;-61
2022/03/27 02:51:05;;;;;;;17.52;11.95;;;;;;;11.95;61.89;103079.41;5042424;28;20029;-62
2022/03/27 02:53:30;;;;;;;16.13;11.95;;;;;;;11.99;62.05;103077.94;5031349;28;20033;-61
2022/03/27 02:55:56;;;;;;;16.73;12.48;;;;;;;11.94;62.13;103074.91;5046713;28;20036;-61
2022/03/27 02:58:21;;;;;;;16.45;13.18;;;;;;;11.81;63.06;103072.03;5050566;28;20048;-60
2022/03/27 03:00:46;;;;;;;17.98;13.73;;;;;;;11.83;63.11;103075.53;5038300;28;20040;-61
2022/03/27 03:03:15;;;;;;;18.38;14.35;;;;;;;11.92;62.89;103070.63;5050222;28;20128;-61
2022/03/27 03:05:42;;;;;;;20.17;13.90;;;;;;;11.92;63.25;103068.69;5050331;28;20416;-61
2022/03/27 03:08:11;;;;;;;21.30;14.02;;;;;;;11.93;63.06;103072.34;5049678;28;20021;-62
2022/03/27 03:10:38;;;;;;;19.05;14.35;;;;;;;11.92;62.95;103074.25;5048974;28;20029;-61
2022/03/27 03:13:04;;;;;;;21.58;14.57;;;;;;;11.90;63.16;103076.38;5040274;28;20383;-60
2022/03/27 03:15:30;;;;;;;20.38;14.55;;;;;;;11.86;63.21;103066.72;5038129;28;20049;-61
2022/03/27 03:17:55;;;;;;;18.70;14.23;;;;;;;11.90;62.91;103065.25;5050530;28;20434;-61
2022/03/27 03:20:21;;;;;;;16.85;14.23;;;;;;;11.82;63.24;103070.09;5048766;28;20473;-60
2022/03/27 03:22:46;;;;;;;19.63;14.90;;;;;;;11.87;63.35;103067.59;5046300;28;20038;-60
2022/03/27 03:25:11;;;;;;;19.45;14.90;;;;;;;11.84;63.44;103068.03;5035650;28;20051;-60
2022/03/27 03:27:39;;;;;;;17.80;14.30;;;;;;;11.88;63.13;103066.53;5039074;28;20029;-60
2022/03/27 03:30:06;;;;;;;20.35;14.68;;;;;;;11.76;63.65;103057.91;5030735;28;20503;-61
2022/03/27 03:32:34;;;;;;;18.10;14.40;;;;;;;11.76;63.57;103055.13;5030994;28;20112;-61
2022/03/27 03:34:59;;;;;;;15.63;13.30;;;;;;;11.81;63.54;103063.69;5034202;28;20033;-61
2022/03/27 03:37:24;;;;;;;16.92;13.98;;;;;;;11.72;63.75;103062.16;5045624;28;20032;-61
2022/03/27 03:39:53;;;;;;;17.02;14.00;;;;;;;11.73;63.99;103066.66;5046681;28;20094;-61
2022/03/27 03:42:18;;;;;;;17.45;14.18;;;;;;;11.76;63.72;103052.34;5041887;28;20025;-61
2022/03/27 03:44:44;;;;;;;17.52;14.57;;;;;;;11.79;63.48;103054.72;5037422;28;20131;-61
2022/03/27 03:47:10;;;;;;;18.17;13.73;;;;;;;11.68;63.71;103056.16;5033787;28;20420;-60
2022/03/27 03:49:36;;;;;;;17.45;13.18;;;;;;;11.67;63.89;103048.88;5042788;28;20531;-60
2022/03/27 03:52:07;;;;;;;18.13;14.02;;;;;;;11.70;63.82;103053.16;5040854;28;20415;-61
2022/03/27 03:54:33;;;;;;;17.67;14.38;;;;;;;11.69;63.82;103063.44;5035862;28;20029;-60
2022/03/27 03:57:01;;;;;;;17.73;15.23;;;;;;;11.64;64.08;103052.06;5051615;28;20033;-61
2022/03/27 03:59:26;;;;;;;17.92;15.10;;;;;;;11.72;63.77;103060.25;5045825;28;20025;-61
2022/03/27 04:01:51;;;;;;;16.67;14.82;;;;;;;11.63;64.06;103060.59;5037682;28;20049;-60
2022/03/27 04:04:16;;;;;;;16.95;14.18;;;;;;;11.59;64.00;103057.38;5048326;28;20112;-61
2022/03/27 04:06:42;;;;;;;17.58;14.45;;;;;;;11.56;64.57;103060.59;5034165;28;20037;-60
2022/03/27 04:09:28;;;;;;;17.50;14.50;;;;;;;11.66;63.39;103063.81;5042284;28;20049;-60
2022/03/27 04:11:53;;;;;;;16.55;13.65;;;;;;;11.59;64.26;103060.16;5038861;28;20136;-61
2022/03/27 04:14:25;;;;;;;16.88;13.88;;;;;;;11.66;64.03;103074.09;5034058;28;20108;-61
2022/03/27 04:16:50;;;;;;;15.32;13.57;;;;;;;11.58;64.30;103065.94;5044220;28;20021;-61
2022/03/27 04:19:15;;;;;;;18.02;15.05;;;;;;;11.53;64.58;103069.34;5048092;28;20036;-61
2022/03/27 04:21:42;;;;;;;19.63;15.57;;;;;;;11.53;64.39;103067.41;5041852;28;20493;-61
2022/03/27 04:24:10;;;;;;;17.20;15.38;;;;;;;11.58;64.40;103060.38;5051582;28;20053;-61
2022/03/27 04:26:40;;;;;;;20.40;16.08;;;;;;;11.64;64.14;103056.78;5048363;28;20033;-61
2022/03/27 04:29:12;;;;;;;20.58;15.30;;;;;;;11.57;64.33;103064.22;5035514;28;20096;-60
2022/03/27 04:31:39;;;;;;;22.10;15.30;;;;;;;11.56;64.53;103063.38;5045081;28;20476;-60
2022/03/27 04:34:05;;;;;;;20.83;15.55;;;;;;;11.51;64.43;103055.66;5051657;28;20032;-61
2022/03/27 04:36:30;;;;;;;18.85;15.40;;;;;;;11.54;64.39;103058.00;5037983;28;20476;-61
2022/03/27 04:38:55;;;;;;;16.98;14.52;;;;;;;11.54;64.50;103060.78;5042331;28;20090;-61
2022/03/27 04:41:21;;;;;;;17.38;15.15;;;;;;;11.53;64.48;103059.06;5051388;28;20029;-61
2022/03/27 04:43:48;;;;;;;18.92;16.13;;;;;;;11.50;64.62;103064.19;5038885;28;20048;-61
2022/03/27 04:46:14;;;;;;;18.30;16.27;;;;;;;11.48;64.46;103061.63;5033005;28;20116;-61
2022/03/27 04:48:43;;;;;;;17.58;15.05;;;;;;;11.48;64.56;103061.63;5033377;28;20142;-61
2022/03/27 04:51:09;;;;;;;19.88;16.80;;;;;;;11.48;64.71;103055.19;5041027;28;20099;-61
2022/03/27 04:53:34;;;;;;;17.92;15.70;;;;;;;11.51;64.43;103054.75;5038589;28;20392;-61
2022/03/27 04:56:00;;;;;;;18.40;16.30;;;;;;;11.45;64.71;103062.03;5045484;28;20410;-61
2022/03/27 04:58:25;;;;;;;17.60;15.70;;;;;;;11.40;64.93;103059.00;5047963;28;20045;-60
2022/03/27 05:00:50;;;;;;;19.17;17.10;;;;;;;11.46;64.71;103057.31;5048151;28;20048;-60
2022/03/27 05:03:15;;;;;;;24.00;16.80;;;;;;;11.45;64.71;103064.81;5051854;28;20041;-61
2022/03/27 05:05:41;;;;;;;21.70;16.63;;;;;;;11.45;64.64;103072.28;5049335;28;20091;-61
2022/03/27 05:08:07;;;;;;;17.85;15.98;;;;;;;11.47;64.70;103079.34;5041258;28;20134;-61
2022/03/27 05:10:33;;;;;;;19.15;16.10;;;;;;;11.40;64.95;103075.69;5040151;28;20047;-62
2022/03/27 05:12:58;;;;;;;20.90;16.85;;;;;;;11.36;64.72;103071.59;5050878;28;20025;-60
2022/03/27 05:15:23;;;;;;;19.52;17.35;;;;;;;11.43;64.76;103079.97;5051698;28;20033;-61
2022/03/27 05:17:53;;;;;;;20.60;17.52;;;;;;;11.44;65.03;103077.00;5036651;28;20025;-60
2022/03/27 05:20:21;;;;;;;23.10;17.67;;;;;;;11.41;65.08;103088.53;5052335;28;20044;-61
2022/03/27 05:22:54;;;;;;;21.35;18.02;;;;;;;11.39;65.08;103076.72;5039448;28;20036;-61
2022/03/27 05:25:19;;;;;;;22.17;17.98;;;;;;;11.36;65.18;103079.94;5052944;28;20017;-60
2022/03/27 05:27:47;;;;;;;23.23;18.63;;;;;;;11.39;65.11;103073.94;5046185;28;20036;-61
2022/03/27 05:30:15;;;;;;;23.02;17.88;;;;;;;11.39;65.11;103076.72;5049722;28;20033;-61
2022/03/27 05:32:41;;;;;;;23.30;18.83;;;;;;;11.35;65.38;103082.91;5033265;28;20037;-61
2022/03/27 05:35:07;;;;;;;23.92;20.00;;;;;;;11.36;65.42;103081.84;5050178;28;20120;-61
2022/03/27 05:37:41;;;;;;;25.65;21.52;;;;;;;11.28;65.25;103088.44;5047500;28;20087;-61
2022/03/27 05:40:09;;;;;;;28.48;20.77;;;;;;;11.20;65.49;103091.34;5051700;28;20033;-61
2022/03/27 05:42:35;;;;;;;27.23;20.80;;;;;;;11.18;65.75;103093.50;5032573;28;20112;-61
2022/03/27 05:45:05;;;;;;;26.02;19.63;;;;;;;11.20;65.34;103095.00;5032846;28;20079;-61
2022/03/27 05:47:31;;;;;;;27.52;19.98;;;;;;;11.23;65.18;103088.16;5051665;28;20025;-60
2022/03/27 05:49:56;;;;;;;25.90;20.17;;;;;;;11.22;65.27;103083.69;5043505;28;20043;-61
2022/03/27 05:52:23;;;;;;;24.92;20.90;;;;;;;11.13;65.50;103093.25;5032187;28;20112;-61
2022/03/27 05:54:49;;;;;;;25.30;20.48;;;;;;;11.12;65.45;103089.63;5041327;28;20036;-61
2022/03/27 05:57:15;;;;;;;24.17;19.83;;;;;;;11.03;65.69;103088.88;5051479;28;20177;-61
2022/03/27 05:59:40;;;;;;;23.88;19.58;;;;;;;11.04;65.35;103098.06;5050982;28;20025;-60
2022/03/27 06:02:06;;;;;;;22.77;18.80;;;;;;;11.07;64.81;103098.53;5051058;28;20045;-61
2022/03/27 06:04:31;;;;;;;22.77;18.42;;;;;;;10.96;65.42;103099.06;5047907;28;20036;-61
2022/03/27 06:06:56;;;;;;;20.63;17.35;;;;;;;10.98;65.22;103101.66;5045361;28;20079;-61
2022/03/27 06:09:22;;;;;;;23.60;18.48;;;;;;;11.05;64.63;103111.78;5049073;28;20029;-61
2022/03/27 06:11:47;;;;;;;20.45;16.42;;;;;;;11.01;64.91;103110.47;5042563;28;20030;-60
2022/03/27 06:14:13;;;;;;;23.10;17.20;;;;;;;11.00;64.88;103114.31;5048609;28;20044;-61
2022/03/27 06:16:38;;;;;;;21.02;16.63;;;;;;;11.02;64.79;103114.97;5042642;28;20090;-61
2022/03/27 06:19:04;;;;;;;20.65;16.35;;;;;;;10.96;64.77;103121.31;5049497;28;20024;-61
2022/03/27 06:21:29;;;;;;;22.45;16.58;;;;;;;10.96;64.95;103115.75;5046507;28;20029;-61
2022/03/27 06:23:54;;;;;;;21.80;16.52;;;;;;;10.92;64.99;103116.34;5047619;28;20036;-61
2022/03/27 06:26:23;;;;;;;25.45;16.98;;;;;;;10.89;65.13;103112.06;5046434;28;20057;-61
2022/03/27 06:28:48;;;;;;;22.90;17.15;;;;;;;10.95;64.86;103111.25;5042145;28;20413;-61
2022/03/27 06:31:13;;;;;;;26.35;18.42;;;;;;;10.90;65.05;103112.94;5041477;28;20033;-61
2022/03/27 06:33:39;;;;;;;26.45;19.02;;;;;;;10.81;65.20;103109.44;5044313;28;20017;-61
2022/03/27 06:36:05;;;;;;;24.85;18.98;;;;;;;10.81;65.72;103126.13;5051169;28;20044;-61
2022/03/27 06:38:30;;;;;;;25.00;18.20;;;;;;;10.84;65.63;103122.06;5050092;28;20112;-60
2022/03/27 06:40:56;;;;;;;27.15;18.98;;;;;;;10.90;65.47;103124.03;5048712;28;20051;-62
2022/03/27 06:43:22;;;;;;;26.77;18.48;;;;;;;10.85;65.56;103121.88;5049398;28;20063;-62
2022/03/27 06:45:48;;;;;;;28.33;19.20;;;;;;;10.77;65.72;103130.34;5044925;28;20075;-63
2022/03/27 06:48:14;;;;;;;28.05;19.70;;;;;;;10.74;65.77;103133.50;5048440;28;20029;-61
2022/03/27 06:50:39;;;;;;;28.98;19.95;;;;;;;10.71;65.67;103131.13;5040314;28;20113;-62
2022/03/27 06:53:05;;;;;;;29.80;20.48;;;;;;;10.74;65.89;103130.75;5039011;28;20100;-61
2022/03/27 06:55:34;;;;;;;31.58;20.95;;;;;;;10.66;66.46;103128.09;5049293;28;20040;-62
2022/03/27 06:58:02;;;;;;;29.85;20.50;;;;;;;10.72;66.02;103128.13;5037247;28;20021;-62
2022/03/27 07:03:12;;;;;;;29.38;20.40;;;;;;;10.71;66.30;103125.56;5042722;28;20071;-60
2022/03/27 07:05:43;;;;;;;33.70;21.73;;;;;;;10.78;66.08;103127.34;5050278;28;20533;-61
2022/03/27 07:08:11;;;;;;;31.88;20.35;;;;;;;10.78;65.85;103137.63;5046667;28;20037;-61
2022/03/27 07:10:40;;;;;;;32.53;19.95;;;;;;;10.74;65.94;103136.28;5050501;28;20036;-60
2022/03/27 07:13:09;;;;;;;30.02;20.90;;;;;;;10.76;66.45;103136.94;5032843;28;20018;-61
2022/03/27 07:15:36;;;;;;;31.13;21.15;;;;;;;10.68;66.06;103125.97;5030242;28;20487;-62
2022/03/27 07:18:02;;;;;;;35.17;21.90;;;;;;;10.74;66.15;103130.75;5036803;28;20018;-61
2022/03/27 07:20:30;;;;;;;31.67;21.20;;;;;;;10.72;66.45;103128.13;5033163;28;20068;-61
2022/03/27 07:22:57;;;;;;;35.25;22.73;;;;;;;10.72;65.88;103127.28;5039700;28;20064;-61
2022/03/27 07:25:24;;;;;;;37.55;23.83;;;;;;;10.77;66.49;103124.78;5047811;28;20119;-61
2022/03/27 07:27:52;;;;;;;36.25;23.27;;;;;;;10.79;66.05;103123.50;5056372;28;20052;-61
2022/03/27 07:30:18;;;;;;;36.95;24.40;;;;;;;10.79;65.97;103123.50;5056596;28;20040;-62
2022/03/27 07:32:44;;;;;;;37.47;23.75;;;;;;;10.73;66.16;103132.66;5051957;28;20032;-62
2022/03/27 07:35:11;;;;;;;38.17;24.67;;;;;;;10.67;66.67;103132.59;5042708;28;20056;-62
2022/03/27 07:37:38;;;;;;;39.03;24.42;;;;;;;10.67;66.78;103129.81;5046478;28;20036;-61
2022/03/27 07:40:08;;;;;;;35.88;23.95;;;;;;;10.72;66.71;103130.06;5043814;28;20052;-62
2022/03/27 07:42:49;;;;;;;41.92;24.50;;;;;;;10.76;66.22;103139.72;5047654;28;20061;-62
2022/03/27 07:45:18;;;;;;;40.33;23.95;;;;;;;10.65;66.36;103130.03;5052719;28;20021;-61
2022/03/27 07:47:44;;;;;;;37.83;23.40;;;;;;;10.59;66.50;103127.16;5069024;28;20036;-61
2022/03/27 07:50:11;;;;;;;36.58;22.65;;;;;;;10.60;66.78;103131.66;5041419;28;20029;-61
2022/03/27 07:52:40;;;;;;;36.05;22.67;;;;;;;10.59;66.62;103132.72;5041163;28;20112;-61
2022/03/27 07:55:07;;;;;;;37.90;23.15;;;;;;;10.57;66.55;103130.13;5048327;28;20086;-64
2022/03/27 07:57:35;;;;;;;39.20;23.23;;;;;;;10.57;66.46;103138.44;5047697;28;20052;-63
2022/03/27 08:00:02;;;;;;;31.63;20.98;;;;;;;10.52;66.81;103138.19;5044651;28;20411;-62
2022/03/27 08:02:27;;;;;;;33.38;21.52;;;;;;;10.42;66.52;103127.41;5042022;28;20048;-62
2022/03/27 08:04:55;;;;;;;30.83;20.65;;;;;;;10.39;66.89;103133.34;5049611;28;20032;-63
2022/03/27 08:07:21;;;;;;;35.60;23.20;;;;;;;10.38;67.09;103126.09;5056525;28;20067;-62
2022/03/27 08:09:47;;;;;;;34.63;22.83;;;;;;;10.47;66.70;103126.81;5056494;28;20511;-63
2022/03/27 08:12:12;;;;;;;36.60;22.73;;;;;;;10.49;66.81;103120.03;5054962;28;20037;-62
2022/03/27 08:14:39;;;;;;;34.22;21.90;;;;;;;10.46;66.73;103128.75;5056361;28;20037;-61
2022/03/27 08:17:06;;;;;;;33.47;23.25;;;;;;;10.45;66.93;103123.38;5045532;28;20044;-61
2022/03/27 08:19:31;;;;;;;37.47;23.13;;;;;;;10.51;66.78;103120.66;5037234;28;20031;-62
2022/03/27 08:21:57;;;;;;;37.47;23.75;;;;;;;10.55;66.47;103121.13;5044352;28;20395;-61
2022/03/27 08:24:24;;;;;;;38.42;23.83;;;;;;;10.55;66.47;103126.69;5054453;28;20033;-61
2022/03/27 08:26:56;;;;;;;35.60;23.85;;;;;;;10.49;66.77;103122.81;5048455;28;20134;-61
2022/03/27 08:29:24;;;;;;;36.50;24.20;;;;;;;10.60;66.68;103131.66;5047394;28;20029;-61
2022/03/27 08:31:53;;;;;;;37.50;23.40;;;;;;;10.60;66.39;103134.44;5054218;28;20085;-61
2022/03/27 08:34:34;;;;;;;36.00;22.35;;;;;;;10.62;66.41;103132.31;5046681;28;20021;-65
2022/03/27 08:37:01;;;;;;;36.55;24.35;;;;;;;10.62;66.64;103132.31;5033076;28;20052;-62
2022/03/27 08:39:27;;;;;;;35.40;23.25;;;;;;;10.63;66.08;103139.59;5040976;28;20071;-61
2022/03/27 08:41:54;;;;;;;36.58;24.23;;;;;;;10.58;66.12;103137.41;5063608;28;20119;-62
2022/03/27 08:44:24;;;;;;;36.92;23.55;;;;;;;10.60;66.35;103128.88;5059315;28;20047;-62
2022/03/27 08:46:53;;;;;;;35.60;23.27;;;;;;;10.54;66.30;103131.41;5049091;28;20464;-62
2022/03/27 08:49:40;;;;;;;35.92;23.35;;;;;;;10.61;65.89;103130.59;5044322;28;20071;-63
2022/03/27 08:52:18;;;;;;;35.53;23.17;;;;;;;10.65;65.86;103134.69;5048642;28;20383;-61
2022/03/27 08:55:01;;;;;;;36.05;22.80;;;;;;;10.61;65.95;103136.13;5047182;28;20060;-61
2022/03/27 08:57:58;;;;;;;34.03;22.67;;;;;;;10.65;65.60;103131.91;5032799;28;20037;-61
2022/03/27 09:00:31;;;;;;;37.45;22.55;;;;;;;10.47;66.08;103133.22;5035877;28;20463;-63
2022/03/27 09:03:02;;;;;;;33.67;22.98;;;;;;;10.49;65.98;103133.91;5041854;28;20072;-63
2022/03/27 09:05:33;;;;;;;32.63;22.30;;;;;;;10.44;66.10;103147.50;5036744;28;20043;-63
2022/03/27 09:08:12;;;;;;;33.13;21.80;;;;;;;10.46;66.05;103141.78;5055388;28;20037;-61
2022/03/27 09:10:40;;;;;;;31.08;21.88;;;;;;;10.51;65.81;103142.03;5061672;28;20033;-63
2022/03/27 09:13:11;;;;;;;28.05;19.95;;;;;;;10.51;66.08;103145.66;5051195;28;20036;-62
2022/03/27 09:15:36;;;;;;;23.05;16.83;;;;;;;10.52;65.12;103152.94;5050919;28;20120;-61
2022/03/27 09:18:22;;;;;;;24.33;16.58;;;;;;;10.52;64.96;103157.63;5052132;28;20119;-64
2022/03/27 09:20:52;;;;;;;24.25;17.33;;;;;;;10.44;65.28;103154.97;5036830;28;20132;-61
2022/03/27 09:23:23;;;;;;;24.35;17.17;;;;;;;10.47;65.35;103152.66;5034939;28;20024;-62
2022/03/27 09:25:56;;;;;;;24.88;16.85;;;;;;;10.46;65.07;103155.66;5050946;28;21968;-61
2022/03/27 09:28:57;;;;;;;23.65;16.63;;;;;;;10.51;65.20;103159.53;5050623;28;20032;-60
2022/03/27 09:31:26;;;;;;;26.13;16.90;;;;;;;10.46;65.05;103152.88;5039410;28;20121;-62
2022/03/27 09:33:57;;;;;;;28.40;18.27;;;;;;;10.47;65.14;103163.78;5046618;28;20033;-61
2022/03/27 09:36:25;;;;;;;22.02;16.42;;;;;;;10.46;65.27;103153.72;5042572;28;20037;-62
2022/03/27 09:39:12;;;;;;;24.98;17.50;;;;;;;10.51;65.40;103158.69;5043940;28;20032;-62
2022/03/27 09:41:53;;;;;;;29.27;18.55;;;;;;;10.52;65.17;103150.16;5046748;28;20055;-61
2022/03/27 09:44:42;;;;;;;27.55;19.00;;;;;;;10.58;64.95;103148.53;5038202;28;20036;-62
2022/03/27 09:47:08;;;;;;;26.65;18.05;;;;;;;10.50;65.05;103138.41;5047739;28;20029;-61
2022/03/27 09:49:34;;;;;;;25.35;18.15;;;;;;;10.48;65.17;103143.28;5044415;28;20029;-61
2022/03/27 09:52:00;;;;;;;27.42;18.10;;;;;;;10.52;65.82;103139.03;5044958;28;20472;-61
2022/03/27 09:54:28;;;;;;;28.52;19.55;;;;;;;10.57;65.76;103135.66;5051172;28;20119;-61
2022/03/27 09:56:54;;;;;;;28.67;19.35;;;;;;;10.55;65.68;103135.03;5038506;28;20032;-62
2022/03/27 09:59:26;;;;;;;25.00;18.27;;;;;;;10.57;65.60;103131.00;5042848;28;20116;-60
2022/03/27 10:01:52;;;;;;;;;;;;;;;10.76;64.18;103125.81;5045490;28;20049;-61
2022/03/27 10:04:17;;;;;;;31.40;20.92;;;;;;;10.64;65.00;103121.88;5048534;28;19927;-61
2022/03/27 10:06:49;;;;;;;30.42;19.45;;;;;;;10.60;65.60;103117.75;5045996;28;20067;-61
2022/03/27 10:09:14;;;;;;;31.73;20.60;;;;;;;10.61;65.51;103122.25;5044140;28;20032;-61
2022/03/27 10:11:41;;;;;;;28.30;19.73;;;;;;;10.61;65.66;103108.38;5048219;28;20471;-61
2022/03/27 10:14:08;;;;;;;29.95;20.83;;;;;;;10.69;65.77;103109.13;5042061;28;20028;-62
2022/03/27 10:16:36;;;;;;;28.48;20.75;;;;;;;10.67;65.48;103114.00;5047039;28;20160;-61
2022/03/27 10:19:07;;;;;;;27.23;19.20;;;;;;;10.69;65.38;103109.13;5045199;28;20020;-63
2022/03/27 10:21:34;;;;;;;25.70;18.25;;;;;;;10.72;65.51;103105.91;5049228;28;20087;-63
2022/03/27 10:24:12;;;;;;;26.90;18.25;;;;;;;10.86;65.03;103106.06;5046366;28;20834;-61
2022/03/27 10:26:39;;;;;;;25.70;18.35;;;;;;;10.89;64.82;103108.44;5047653;28;20468;-61
2022/03/27 10:29:05;;;;;;;27.13;18.40;;;;;;;10.90;64.95;103108.22;5043499;28;20028;-61
2022/03/27 10:31:31;;;;;;;25.80;18.42;;;;;;;10.93;65.15;103099.50;5047340;28;20247;-61
2022/03/27 10:34:00;;;;;;;26.42;19.35;;;;;;;10.99;64.61;103101.47;5037371;28;20561;-61
2022/03/27 10:36:28;;;;;;;29.20;20.67;;;;;;;11.03;64.59;103104.69;5042232;28;20021;-60
2022/03/27 10:39:03;;;;;;;26.15;20.05;;;;;;;11.07;64.20;103094.91;5040661;28;20032;-60
2022/03/27 10:41:43;;;;;;;26.77;19.88;;;;;;;11.14;64.19;103093.03;5045233;28;20041;-60
2022/03/27 10:44:46;;;;;;;30.90;20.85;;;;;;;11.26;63.99;103087.78;5045967;28;20091;-61
2022/03/27 10:47:21;;;;;;;26.85;19.65;;;;;;;11.34;63.74;103093.16;5048065;28;20526;-61
2022/03/27 10:50:02;;;;;;;27.23;19.80;;;;;;;11.48;63.39;103078.31;5044710;28;20032;-62
2022/03/27 10:52:30;;;;;;;29.35;20.67;;;;;;;11.53;63.44;103081.31;5048997;28;20040;-61
2022/03/27 10:55:01;;;;;;;26.65;20.55;;;;;;;11.69;63.10;103079.25;5044556;28;20112;-61
2022/03/27 10:57:29;;;;;;;30.00;21.42;;;;;;;11.86;63.05;103083.44;5044135;28;20387;-61
2022/03/27 10:59:55;;;;;;;31.10;20.23;;;;;;;12.10;63.19;103075.59;5046059;28;20025;-62
2022/03/27 11:02:47;;;;;;;27.75;19.88;;;;;;;12.23;62.23;103070.94;5039176;28;20164;-61
2022/03/27 11:05:36;;;;;;;26.67;19.25;;;;;;;12.35;61.61;103071.19;5029781;28;20080;-61
2022/03/27 11:08:17;;;;;;;27.77;20.33;;;;;;;12.42;61.87;103068.44;5031588;28;20060;-62
2022/03/27 11:10:50;;;;;;;26.77;19.92;;;;;;;12.55;62.05;103060.06;5031704;28;20116;-62
2022/03/27 11:13:30;;;;;;;25.63;19.15;;;;;;;12.65;60.83;103068.84;5037235;28;20017;-62
2022/03/27 11:16:13;;;;;;;25.58;19.00;;;;;;;12.68;60.53;103064.78;5023710;28;20909;-61
2022/03/27 11:18:40;;;;;;;;;;;;;;;12.77;60.83;103063.50;5026002;28;20032;-60
2022/03/27 11:21:10;;;;;;;24.38;18.40;;;;;;;12.81;59.91;103059.25;5030359;28;20291;-63